sensor_id;sensor_type;location;lat;lon;timestamp;temperature;humidity
16285;DHT22;8250;52.426;9.450;2022-07-06T00:02:02;17.50;99.90
16285;DHT22;8250;52.426;9.450;2022-07-06T00:04:29;17.50;99.90
16285;DHT22;8250;52.426;9.450;2022-07-06T00:06:55;17.50;99.90
16285;DHT22;8250;52.426;9.450;2022-07-06T00:09:24;17.50;99.90
16285;DHT22;8250;52.426;9.450;2022-07-06T00:11:51;17.40;99.90
16285;DHT22;8250;52.426;9.450;2022-07-06T00:14:18;17.40;99.90
16285;DHT22;8250;52.426;9.450;2022-07-06T00:16:44;17.40;99.90
16285;DHT22;8250;52.426;9.450;2022-07-06T00:19:12;17.40;99.90
16285;DHT22;8250;52.426;9.450;2022-07-06T00:21:39;17.40;99.90
16285;DHT22;8250;52.426;9.450;2022-07-06T00:24:06;17.30;99.90
16285;DHT22;8250;52.426;9.450;2022-07-06T00:26:34;17.30;99.90
16285;DHT22;8250;52.426;9.450;2022-07-06T00:29:01;17.30;99.90
16285;DHT22;8250;52.426;9.450;2022-07-06T00:31:28;17.20;99.90
16285;DHT22;8250;52.426;9.450;2022-07-06T00:33:55;17.10;99.90
16285;DHT22;8250;52.426;9.450;2022-07-06T00:36:22;17.10;99.90
16285;DHT22;8250;52.426;9.450;2022-07-06T00:38:49;17.10;99.90
16285;DHT22;8250;52.426;9.450;2022-07-06T00:41:16;17.10;99.90
16285;DHT22;8250;52.426;9.450;2022-07-06T00:43:51;17.00;99.90
16285;DHT22;8250;52.426;9.450;2022-07-06T00:46:23;17.00;99.90
16285;DHT22;8250;52.426;9.450;2022-07-06T00:48:52;17.00;99.90
16285;DHT22;8250;52.426;9.450;2022-07-06T00:51:20;17.00;99.90
16285;DHT22;8250;52.426;9.450;2022-07-06T00:53:49;16.90;99.90
16285;DHT22;8250;52.426;9.450;2022-07-06T00:56:16;16.90;99.90
16285;DHT22;8250;52.426;9.450;2022-07-06T00:58:43;16.90;99.90
16285;DHT22;8250;52.426;9.450;2022-07-06T01:01:12;16.90;99.90
16285;DHT22;8250;52.426;9.450;2022-07-06T01:03:39;16.90;99.90
16285;DHT22;8250;52.426;9.450;2022-07-06T01:06:06;16.80;99.90
16285;DHT22;8250;52.426;9.450;2022-07-06T01:08:33;16.80;99.90
16285;DHT22;8250;52.426;9.450;2022-07-06T01:11:00;16.80;99.90
16285;DHT22;8250;52.426;9.450;2022-07-06T01:13:30;16.80;99.90
16285;DHT22;8250;52.426;9.450;2022-07-06T01:15:57;16.80;99.90
16285;DHT22;8250;52.426;9.450;2022-07-06T01:18:26;16.80;99.90
16285;DHT22;8250;52.426;9.450;2022-07-06T01:21:06;16.80;99.90
16285;DHT22;8250;52.426;9.450;2022-07-06T01:23:39;16.90;99.90
16285;DHT22;8250;52.426;9.450;2022-07-06T01:26:07;16.80;99.90
16285;DHT22;8250;52.426;9.450;2022-07-06T01:28:34;16.80;99.90
16285;DHT22;8250;52.426;9.450;2022-07-06T01:31:02;16.70;99.90
16285;DHT22;8250;52.426;9.450;2022-07-06T01:33:29;16.70;99.90
16285;DHT22;8250;52.426;9.450;2022-07-06T01:35:56;16.70;99.90
16285;DHT22;8250;52.426;9.450;2022-07-06T01:38:24;16.70;99.90
16285;DHT22;8250;52.426;9.450;2022-07-06T01:40:51;16.70;99.90
16285;DHT22;8250;52.426;9.450;2022-07-06T01:43:18;16.80;99.90
16285;DHT22;8250;52.426;9.450;2022-07-06T01:45:45;16.80;99.90
16285;DHT22;8250;52.426;9.450;2022-07-06T01:48:11;16.70;99.90
16285;DHT22;8250;52.426;9.450;2022-07-06T01:50:38;16.70;99.90
16285;DHT22;8250;52.426;9.450;2022-07-06T01:53:05;16.70;99.90
16285;DHT22;8250;52.426;9.450;2022-07-06T01:55:33;16.70;99.90
16285;DHT22;8250;52.426;9.450;2022-07-06T01:58:00;16.70;99.90
16285;DHT22;8250;52.426;9.450;2022-07-06T02:00:27;16.70;99.90
16285;DHT22;8250;52.426;9.450;2022-07-06T02:02:54;16.70;99.90
16285;DHT22;8250;52.426;9.450;2022-07-06T02:05:21;16.70;99.90
16285;DHT22;8250;52.426;9.450;2022-07-06T02:07:48;16.70;99.90
16285;DHT22;8250;52.426;9.450;2022-07-06T02:10:15;16.70;99.90
16285;DHT22;8250;52.426;9.450;2022-07-06T02:12:43;16.70;99.90
16285;DHT22;8250;52.426;9.450;2022-07-06T02:15:10;16.60;99.90
16285;DHT22;8250;52.426;9.450;2022-07-06T02:17:37;16.60;99.90
16285;DHT22;8250;52.426;9.450;2022-07-06T02:20:05;16.60;99.90
16285;DHT22;8250;52.426;9.450;2022-07-06T02:22:32;16.60;99.90
16285;DHT22;8250;52.426;9.450;2022-07-06T02:24:59;16.70;99.90
16285;DHT22;8250;52.426;9.450;2022-07-06T02:27:26;16.60;99.90
16285;DHT22;8250;52.426;9.450;2022-07-06T02:29:54;16.60;99.90
16285;DHT22;8250;52.426;9.450;2022-07-06T02:32:21;16.60;99.90
16285;DHT22;8250;52.426;9.450;2022-07-06T02:34:47;16.60;99.90
16285;DHT22;8250;52.426;9.450;2022-07-06T02:37:14;16.50;99.90
16285;DHT22;8250;52.426;9.450;2022-07-06T02:39:41;16.50;99.90
16285;DHT22;8250;52.426;9.450;2022-07-06T02:42:08;16.50;99.90
16285;DHT22;8250;52.426;9.450;2022-07-06T02:44:35;16.50;99.90
16285;DHT22;8250;52.426;9.450;2022-07-06T02:47:03;16.40;99.90
16285;DHT22;8250;52.426;9.450;2022-07-06T02:49:30;16.40;99.90
16285;DHT22;8250;52.426;9.450;2022-07-06T02:51:57;16.30;99.90
16285;DHT22;8250;52.426;9.450;2022-07-06T02:54:24;16.40;99.90
16285;DHT22;8250;52.426;9.450;2022-07-06T02:56:51;16.30;99.90
16285;DHT22;8250;52.426;9.450;2022-07-06T02:59:18;16.30;99.90
16285;DHT22;8250;52.426;9.450;2022-07-06T03:01:45;16.30;99.90
16285;DHT22;8250;52.426;9.450;2022-07-06T03:04:14;16.30;99.90
16285;DHT22;8250;52.426;9.450;2022-07-06T03:06:41;16.30;99.90
16285;DHT22;8250;52.426;9.450;2022-07-06T03:09:08;16.30;99.90
16285;DHT22;8250;52.426;9.450;2022-07-06T03:11:35;16.30;99.90
16285;DHT22;8250;52.426;9.450;2022-07-06T03:14:02;16.30;99.90
16285;DHT22;8250;52.426;9.450;2022-07-06T03:16:29;16.20;99.90
16285;DHT22;8250;52.426;9.450;2022-07-06T03:18:56;16.20;99.90
16285;DHT22;8250;52.426;9.450;2022-07-06T03:21:25;16.20;99.90
16285;DHT22;8250;52.426;9.450;2022-07-06T03:23:52;16.20;99.90
16285;DHT22;8250;52.426;9.450;2022-07-06T03:26:19;16.20;99.90
16285;DHT22;8250;52.426;9.450;2022-07-06T03:28:45;16.20;99.90
16285;DHT22;8250;52.426;9.450;2022-07-06T03:31:12;16.20;99.90
16285;DHT22;8250;52.426;9.450;2022-07-06T03:33:39;16.10;99.90
16285;DHT22;8250;52.426;9.450;2022-07-06T03:36:06;16.10;99.90
16285;DHT22;8250;52.426;9.450;2022-07-06T03:38:35;16.10;99.90
16285;DHT22;8250;52.426;9.450;2022-07-06T03:41:02;16.00;99.90
16285;DHT22;8250;52.426;9.450;2022-07-06T03:43:29;16.00;99.90
16285;DHT22;8250;52.426;9.450;2022-07-06T03:45:56;16.00;99.90
16285;DHT22;8250;52.426;9.450;2022-07-06T03:48:23;16.00;99.90
16285;DHT22;8250;52.426;9.450;2022-07-06T03:50:50;16.00;99.90
16285;DHT22;8250;52.426;9.450;2022-07-06T03:53:17;16.00;99.90
16285;DHT22;8250;52.426;9.450;2022-07-06T03:55:45;16.00;99.90
16285;DHT22;8250;52.426;9.450;2022-07-06T03:58:32;16.00;99.90
16285;DHT22;8250;52.426;9.450;2022-07-06T04:00:59;16.00;99.90
16285;DHT22;8250;52.426;9.450;2022-07-06T04:03:26;16.00;99.90
16285;DHT22;8250;52.426;9.450;2022-07-06T04:05:53;15.90;99.90
16285;DHT22;8250;52.426;9.450;2022-07-06T04:08:20;15.90;99.90
16285;DHT22;8250;52.426;9.450;2022-07-06T04:10:48;15.90;99.90
16285;DHT22;8250;52.426;9.450;2022-07-06T04:13:15;15.90;99.90
16285;DHT22;8250;52.426;9.450;2022-07-06T04:15:42;15.90;99.90
16285;DHT22;8250;52.426;9.450;2022-07-06T04:18:08;15.90;99.90
16285;DHT22;8250;52.426;9.450;2022-07-06T04:20:35;15.90;99.90
16285;DHT22;8250;52.426;9.450;2022-07-06T04:23:02;15.90;99.90
16285;DHT22;8250;52.426;9.450;2022-07-06T04:25:29;15.90;99.90
16285;DHT22;8250;52.426;9.450;2022-07-06T04:27:58;16.00;99.90
16285;DHT22;8250;52.426;9.450;2022-07-06T04:30:25;16.00;99.90
16285;DHT22;8250;52.426;9.450;2022-07-06T04:32:52;16.00;99.90
16285;DHT22;8250;52.426;9.450;2022-07-06T04:35:20;16.00;99.90
16285;DHT22;8250;52.426;9.450;2022-07-06T04:37:51;16.10;99.90
16285;DHT22;8250;52.426;9.450;2022-07-06T04:40:18;16.10;99.90
16285;DHT22;8250;52.426;9.450;2022-07-06T04:42:45;16.10;99.90
16285;DHT22;8250;52.426;9.450;2022-07-06T04:45:13;16.10;99.90
16285;DHT22;8250;52.426;9.450;2022-07-06T04:47:40;16.10;99.90
16285;DHT22;8250;52.426;9.450;2022-07-06T04:50:09;16.10;99.90
16285;DHT22;8250;52.426;9.450;2022-07-06T04:52:36;16.10;99.90
16285;DHT22;8250;52.426;9.450;2022-07-06T04:55:04;16.20;99.90
16285;DHT22;8250;52.426;9.450;2022-07-06T04:57:31;16.20;99.90
16285;DHT22;8250;52.426;9.450;2022-07-06T04:59:58;16.20;99.90
16285;DHT22;8250;52.426;9.450;2022-07-06T05:02:26;16.20;99.90
16285;DHT22;8250;52.426;9.450;2022-07-06T05:04:53;16.30;99.90
16285;DHT22;8250;52.426;9.450;2022-07-06T05:07:20;16.30;99.90
16285;DHT22;8250;52.426;9.450;2022-07-06T05:09:47;16.20;99.90
16285;DHT22;8250;52.426;9.450;2022-07-06T05:12:14;16.30;99.90
16285;DHT22;8250;52.426;9.450;2022-07-06T05:14:41;16.30;99.90
16285;DHT22;8250;52.426;9.450;2022-07-06T05:17:08;16.20;99.90
16285;DHT22;8250;52.426;9.450;2022-07-06T05:19:37;16.20;99.90
16285;DHT22;8250;52.426;9.450;2022-07-06T05:22:04;16.20;99.90
16285;DHT22;8250;52.426;9.450;2022-07-06T05:24:31;16.20;99.90
16285;DHT22;8250;52.426;9.450;2022-07-06T05:26:58;16.30;99.90
16285;DHT22;8250;52.426;9.450;2022-07-06T05:29:24;16.30;99.90
16285;DHT22;8250;52.426;9.450;2022-07-06T05:31:51;16.20;99.90
16285;DHT22;8250;52.426;9.450;2022-07-06T05:34:18;16.30;99.90
16285;DHT22;8250;52.426;9.450;2022-07-06T05:36:46;16.20;99.90
16285;DHT22;8250;52.426;9.450;2022-07-06T05:39:13;16.30;99.90
16285;DHT22;8250;52.426;9.450;2022-07-06T05:41:44;16.30;99.90
16285;DHT22;8250;52.426;9.450;2022-07-06T05:44:12;16.20;99.90
16285;DHT22;8250;52.426;9.450;2022-07-06T05:46:38;16.30;99.90
16285;DHT22;8250;52.426;9.450;2022-07-06T05:49:05;16.40;99.90
16285;DHT22;8250;52.426;9.450;2022-07-06T05:51:51;16.40;99.90
16285;DHT22;8250;52.426;9.450;2022-07-06T05:54:18;16.40;99.90
16285;DHT22;8250;52.426;9.450;2022-07-06T05:56:45;16.40;99.90
16285;DHT22;8250;52.426;9.450;2022-07-06T05:59:12;16.40;99.90
16285;DHT22;8250;52.426;9.450;2022-07-06T06:01:38;16.40;99.90
16285;DHT22;8250;52.426;9.450;2022-07-06T06:04:05;16.50;99.90
16285;DHT22;8250;52.426;9.450;2022-07-06T06:06:32;16.50;99.90
16285;DHT22;8250;52.426;9.450;2022-07-06T06:09:01;16.50;99.90
16285;DHT22;8250;52.426;9.450;2022-07-06T06:11:27;16.50;99.90
16285;DHT22;8250;52.426;9.450;2022-07-06T06:13:54;16.60;99.90
16285;DHT22;8250;52.426;9.450;2022-07-06T06:16:21;16.50;99.90
16285;DHT22;8250;52.426;9.450;2022-07-06T06:18:48;16.60;99.90
16285;DHT22;8250;52.426;9.450;2022-07-06T06:21:15;16.60;99.90
16285;DHT22;8250;52.426;9.450;2022-07-06T06:23:42;16.70;99.90
16285;DHT22;8250;52.426;9.450;2022-07-06T06:26:10;16.70;99.90
16285;DHT22;8250;52.426;9.450;2022-07-06T06:28:37;16.70;99.90
16285;DHT22;8250;52.426;9.450;2022-07-06T06:31:04;16.70;99.90
16285;DHT22;8250;52.426;9.450;2022-07-06T06:33:31;16.80;99.90
16285;DHT22;8250;52.426;9.450;2022-07-06T06:35:58;16.70;99.90
16285;DHT22;8250;52.426;9.450;2022-07-06T06:38:24;16.80;99.90
16285;DHT22;8250;52.426;9.450;2022-07-06T06:40:53;16.80;99.90
16285;DHT22;8250;52.426;9.450;2022-07-06T06:43:21;16.80;99.90
16285;DHT22;8250;52.426;9.450;2022-07-06T06:45:48;16.80;99.90
16285;DHT22;8250;52.426;9.450;2022-07-06T06:48:15;16.80;99.90
16285;DHT22;8250;52.426;9.450;2022-07-06T06:50:43;16.90;99.90
16285;DHT22;8250;52.426;9.450;2022-07-06T06:53:10;16.90;99.90
16285;DHT22;8250;52.426;9.450;2022-07-06T06:55:37;16.90;99.90
16285;DHT22;8250;52.426;9.450;2022-07-06T06:58:04;16.90;99.90
16285;DHT22;8250;52.426;9.450;2022-07-06T07:00:32;16.90;99.90
16285;DHT22;8250;52.426;9.450;2022-07-06T07:02:59;16.90;99.90
16285;DHT22;8250;52.426;9.450;2022-07-06T07:05:26;16.90;99.90
16285;DHT22;8250;52.426;9.450;2022-07-06T07:07:53;16.90;99.90
16285;DHT22;8250;52.426;9.450;2022-07-06T07:10:24;16.90;99.90
16285;DHT22;8250;52.426;9.450;2022-07-06T07:12:51;16.90;99.90
16285;DHT22;8250;52.426;9.450;2022-07-06T07:15:18;16.90;99.90
16285;DHT22;8250;52.426;9.450;2022-07-06T07:17:47;17.00;99.90
16285;DHT22;8250;52.426;9.450;2022-07-06T07:20:14;17.00;99.90
16285;DHT22;8250;52.426;9.450;2022-07-06T07:22:43;17.10;99.90
16285;DHT22;8250;52.426;9.450;2022-07-06T07:25:10;17.10;99.90
16285;DHT22;8250;52.426;9.450;2022-07-06T07:27:37;17.10;99.90
16285;DHT22;8250;52.426;9.450;2022-07-06T07:30:05;17.20;99.90
16285;DHT22;8250;52.426;9.450;2022-07-06T07:32:32;17.10;99.90
16285;DHT22;8250;52.426;9.450;2022-07-06T07:35:00;17.10;99.90
16285;DHT22;8250;52.426;9.450;2022-07-06T07:37:28;17.10;99.90
16285;DHT22;8250;52.426;9.450;2022-07-06T07:39:55;17.20;99.90
16285;DHT22;8250;52.426;9.450;2022-07-06T07:42:22;17.20;99.90
16285;DHT22;8250;52.426;9.450;2022-07-06T07:44:49;17.20;99.90
16285;DHT22;8250;52.426;9.450;2022-07-06T07:47:19;17.30;99.90
16285;DHT22;8250;52.426;9.450;2022-07-06T07:49:46;17.20;99.90
16285;DHT22;8250;52.426;9.450;2022-07-06T07:52:15;17.30;99.90
16285;DHT22;8250;52.426;9.450;2022-07-06T07:54:47;17.40;99.90
16285;DHT22;8250;52.426;9.450;2022-07-06T07:57:18;17.50;99.90
16285;DHT22;8250;52.426;9.450;2022-07-06T07:59:45;17.50;99.90
16285;DHT22;8250;52.426;9.450;2022-07-06T08:02:12;17.50;99.90
16285;DHT22;8250;52.426;9.450;2022-07-06T08:04:39;17.50;99.90
16285;DHT22;8250;52.426;9.450;2022-07-06T08:07:05;17.60;99.90
16285;DHT22;8250;52.426;9.450;2022-07-06T08:09:34;17.70;99.90
16285;DHT22;8250;52.426;9.450;2022-07-06T08:12:01;17.80;99.90
16285;DHT22;8250;52.426;9.450;2022-07-06T08:14:28;17.90;99.90
16285;DHT22;8250;52.426;9.450;2022-07-06T08:16:54;17.90;99.90
16285;DHT22;8250;52.426;9.450;2022-07-06T08:19:21;18.00;99.90
16285;DHT22;8250;52.426;9.450;2022-07-06T08:22:03;18.00;99.90
16285;DHT22;8250;52.426;9.450;2022-07-06T08:24:48;18.00;99.90
16285;DHT22;8250;52.426;9.450;2022-07-06T08:27:16;18.00;99.90
16285;DHT22;8250;52.426;9.450;2022-07-06T08:29:43;18.10;99.90
16285;DHT22;8250;52.426;9.450;2022-07-06T08:32:10;18.10;99.90
16285;DHT22;8250;52.426;9.450;2022-07-06T08:34:37;18.30;99.90
16285;DHT22;8250;52.426;9.450;2022-07-06T08:37:04;18.30;99.90
16285;DHT22;8250;52.426;9.450;2022-07-06T08:39:31;18.40;99.90
16285;DHT22;8250;52.426;9.450;2022-07-06T08:42:00;18.50;99.90
16285;DHT22;8250;52.426;9.450;2022-07-06T08:44:36;18.50;99.90
16285;DHT22;8250;52.426;9.450;2022-07-06T08:47:05;18.60;99.90
16285;DHT22;8250;52.426;9.450;2022-07-06T08:49:35;18.60;99.90
16285;DHT22;8250;52.426;9.450;2022-07-06T08:52:04;18.70;99.90
16285;DHT22;8250;52.426;9.450;2022-07-06T08:54:32;18.70;99.90
16285;DHT22;8250;52.426;9.450;2022-07-06T08:57:04;18.80;99.90
16285;DHT22;8250;52.426;9.450;2022-07-06T08:59:32;18.90;99.90
16285;DHT22;8250;52.426;9.450;2022-07-06T09:02:00;18.90;99.90
16285;DHT22;8250;52.426;9.450;2022-07-06T09:04:27;18.90;99.90
16285;DHT22;8250;52.426;9.450;2022-07-06T09:06:55;18.90;99.90
16285;DHT22;8250;52.426;9.450;2022-07-06T09:09:23;19.00;99.90
16285;DHT22;8250;52.426;9.450;2022-07-06T09:11:51;19.00;99.90
16285;DHT22;8250;52.426;9.450;2022-07-06T09:14:19;18.90;99.90
16285;DHT22;8250;52.426;9.450;2022-07-06T09:16:51;18.90;99.90
16285;DHT22;8250;52.426;9.450;2022-07-06T09:19:18;18.80;99.90
16285;DHT22;8250;52.426;9.450;2022-07-06T09:21:45;18.80;99.90
16285;DHT22;8250;52.426;9.450;2022-07-06T09:24:13;18.80;99.90
16285;DHT22;8250;52.426;9.450;2022-07-06T09:26:40;18.80;99.90
16285;DHT22;8250;52.426;9.450;2022-07-06T09:29:07;18.90;99.90
16285;DHT22;8250;52.426;9.450;2022-07-06T09:31:37;18.80;99.90
16285;DHT22;8250;52.426;9.450;2022-07-06T09:34:06;18.80;99.90
16285;DHT22;8250;52.426;9.450;2022-07-06T09:36:41;18.90;99.90
16285;DHT22;8250;52.426;9.450;2022-07-06T09:39:30;19.00;99.90
16285;DHT22;8250;52.426;9.450;2022-07-06T09:41:58;19.10;99.90
16285;DHT22;8250;52.426;9.450;2022-07-06T09:44:27;19.20;99.90
16285;DHT22;8250;52.426;9.450;2022-07-06T09:46:57;19.30;99.90
16285;DHT22;8250;52.426;9.450;2022-07-06T09:49:25;19.30;99.90
16285;DHT22;8250;52.426;9.450;2022-07-06T09:51:53;19.30;99.90
16285;DHT22;8250;52.426;9.450;2022-07-06T09:54:20;19.30;99.20
16285;DHT22;8250;52.426;9.450;2022-07-06T09:56:48;19.30;99.10
16285;DHT22;8250;52.426;9.450;2022-07-06T09:59:18;19.20;99.40
16285;DHT22;8250;52.426;9.450;2022-07-06T10:01:46;19.20;99.40
16285;DHT22;8250;52.426;9.450;2022-07-06T10:04:15;19.10;98.70
16285;DHT22;8250;52.426;9.450;2022-07-06T10:06:44;19.10;98.20
16285;DHT22;8250;52.426;9.450;2022-07-06T10:09:12;19.10;97.40
16285;DHT22;8250;52.426;9.450;2022-07-06T10:11:40;19.10;98.70
16285;DHT22;8250;52.426;9.450;2022-07-06T10:14:08;19.10;98.00
16285;DHT22;8250;52.426;9.450;2022-07-06T10:16:37;19.20;97.60
16285;DHT22;8250;52.426;9.450;2022-07-06T10:19:06;19.20;98.20
16285;DHT22;8250;52.426;9.450;2022-07-06T10:21:35;19.30;97.60
16285;DHT22;8250;52.426;9.450;2022-07-06T10:24:04;19.40;97.00
16285;DHT22;8250;52.426;9.450;2022-07-06T10:26:32;19.40;97.10
16285;DHT22;8250;52.426;9.450;2022-07-06T10:29:00;19.40;97.00
16285;DHT22;8250;52.426;9.450;2022-07-06T10:31:27;19.50;97.30
16285;DHT22;8250;52.426;9.450;2022-07-06T10:33:56;19.50;96.90
16285;DHT22;8250;52.426;9.450;2022-07-06T10:36:24;19.60;96.20
16285;DHT22;8250;52.426;9.450;2022-07-06T10:38:53;19.60;96.30
16285;DHT22;8250;52.426;9.450;2022-07-06T10:41:31;19.70;96.20
16285;DHT22;8250;52.426;9.450;2022-07-06T10:43:57;19.80;95.90
16285;DHT22;8250;52.426;9.450;2022-07-06T10:46:28;19.80;95.70
16285;DHT22;8250;52.426;9.450;2022-07-06T10:48:56;19.80;96.00
16285;DHT22;8250;52.426;9.450;2022-07-06T10:51:25;19.90;95.60
16285;DHT22;8250;52.426;9.450;2022-07-06T10:53:57;20.00;96.20
16285;DHT22;8250;52.426;9.450;2022-07-06T10:56:32;20.00;96.50
16285;DHT22;8250;52.426;9.450;2022-07-06T10:59:02;20.00;96.00
16285;DHT22;8250;52.426;9.450;2022-07-06T11:01:35;20.00;95.20
16285;DHT22;8250;52.426;9.450;2022-07-06T11:04:06;20.10;94.70
16285;DHT22;8250;52.426;9.450;2022-07-06T11:06:35;20.00;95.00
16285;DHT22;8250;52.426;9.450;2022-07-06T11:09:04;20.00;94.00
16285;DHT22;8250;52.426;9.450;2022-07-06T11:11:40;19.80;94.30
16285;DHT22;8250;52.426;9.450;2022-07-06T11:14:09;19.90;93.60
16285;DHT22;8250;52.426;9.450;2022-07-06T11:16:38;19.80;93.80
16285;DHT22;8250;52.426;9.450;2022-07-06T11:19:08;19.70;94.40
16285;DHT22;8250;52.426;9.450;2022-07-06T11:21:43;19.60;94.60
16285;DHT22;8250;52.426;9.450;2022-07-06T11:24:13;19.50;95.60
16285;DHT22;8250;52.426;9.450;2022-07-06T11:26:41;19.40;95.80
16285;DHT22;8250;52.426;9.450;2022-07-06T11:29:10;19.30;96.00
16285;DHT22;8250;52.426;9.450;2022-07-06T11:31:38;19.20;96.40
16285;DHT22;8250;52.426;9.450;2022-07-06T11:34:07;19.30;96.10
16285;DHT22;8250;52.426;9.450;2022-07-06T11:36:37;19.20;96.00
16285;DHT22;8250;52.426;9.450;2022-07-06T11:39:04;19.30;96.10
16285;DHT22;8250;52.426;9.450;2022-07-06T11:41:33;19.20;96.40
16285;DHT22;8250;52.426;9.450;2022-07-06T11:44:08;19.30;96.50
16285;DHT22;8250;52.426;9.450;2022-07-06T11:46:44;19.30;96.40
16285;DHT22;8250;52.426;9.450;2022-07-06T11:49:11;19.40;96.00
16285;DHT22;8250;52.426;9.450;2022-07-06T11:51:39;19.40;96.30
16285;DHT22;8250;52.426;9.450;2022-07-06T11:54:17;19.30;95.80
16285;DHT22;8250;52.426;9.450;2022-07-06T11:56:53;19.40;95.90
16285;DHT22;8250;52.426;9.450;2022-07-06T11:59:22;19.40;95.70
16285;DHT22;8250;52.426;9.450;2022-07-06T12:01:50;19.40;96.00
16285;DHT22;8250;52.426;9.450;2022-07-06T12:04:24;19.30;95.90
16285;DHT22;8250;52.426;9.450;2022-07-06T12:06:51;19.40;95.90
16285;DHT22;8250;52.426;9.450;2022-07-06T12:09:18;19.30;96.10
16285;DHT22;8250;52.426;9.450;2022-07-06T12:11:46;19.30;96.80
16285;DHT22;8250;52.426;9.450;2022-07-06T12:14:16;19.40;96.90
16285;DHT22;8250;52.426;9.450;2022-07-06T12:16:45;19.60;96.90
16285;DHT22;8250;52.426;9.450;2022-07-06T12:19:12;19.60;96.40
16285;DHT22;8250;52.426;9.450;2022-07-06T12:21:44;19.80;95.90
16285;DHT22;8250;52.426;9.450;2022-07-06T12:24:19;19.80;96.30
16285;DHT22;8250;52.426;9.450;2022-07-06T12:26:47;19.90;94.60
16285;DHT22;8250;52.426;9.450;2022-07-06T12:29:16;20.00;93.80
16285;DHT22;8250;52.426;9.450;2022-07-06T12:31:50;20.10;93.50
16285;DHT22;8250;52.426;9.450;2022-07-06T12:34:18;20.10;94.00
16285;DHT22;8250;52.426;9.450;2022-07-06T12:36:47;20.20;94.40
16285;DHT22;8250;52.426;9.450;2022-07-06T12:39:15;20.30;93.80
16285;DHT22;8250;52.426;9.450;2022-07-06T12:41:51;20.30;93.40
16285;DHT22;8250;52.426;9.450;2022-07-06T12:44:21;20.30;91.70
16285;DHT22;8250;52.426;9.450;2022-07-06T12:46:49;20.40;91.20
16285;DHT22;8250;52.426;9.450;2022-07-06T12:49:19;20.60;91.50
16285;DHT22;8250;52.426;9.450;2022-07-06T12:51:57;20.60;91.40
16285;DHT22;8250;52.426;9.450;2022-07-06T12:54:25;20.60;91.20
16285;DHT22;8250;52.426;9.450;2022-07-06T12:57:10;20.60;91.50
16285;DHT22;8250;52.426;9.450;2022-07-06T12:59:42;20.60;91.50
16285;DHT22;8250;52.426;9.450;2022-07-06T13:02:17;20.60;92.20
16285;DHT22;8250;52.426;9.450;2022-07-06T13:04:48;20.70;92.20
16285;DHT22;8250;52.426;9.450;2022-07-06T13:07:20;20.70;92.80
16285;DHT22;8250;52.426;9.450;2022-07-06T13:09:47;20.70;92.50
16285;DHT22;8250;52.426;9.450;2022-07-06T13:12:14;20.70;92.40
16285;DHT22;8250;52.426;9.450;2022-07-06T13:14:42;20.70;92.40
16285;DHT22;8250;52.426;9.450;2022-07-06T13:17:09;20.80;92.50
16285;DHT22;8250;52.426;9.450;2022-07-06T13:19:36;20.80;92.90
16285;DHT22;8250;52.426;9.450;2022-07-06T13:22:03;20.80;92.00
16285;DHT22;8250;52.426;9.450;2022-07-06T13:24:30;20.90;91.30
16285;DHT22;8250;52.426;9.450;2022-07-06T13:26:57;20.90;90.70
16285;DHT22;8250;52.426;9.450;2022-07-06T13:29:24;20.90;91.10
16285;DHT22;8250;52.426;9.450;2022-07-06T13:31:53;20.80;91.80
16285;DHT22;8250;52.426;9.450;2022-07-06T13:34:20;21.00;90.90
16285;DHT22;8250;52.426;9.450;2022-07-06T13:36:47;20.90;91.30
16285;DHT22;8250;52.426;9.450;2022-07-06T13:39:14;20.90;91.20
16285;DHT22;8250;52.426;9.450;2022-07-06T13:41:41;20.90;91.30
16285;DHT22;8250;52.426;9.450;2022-07-06T13:44:08;20.90;90.90
16285;DHT22;8250;52.426;9.450;2022-07-06T13:46:38;20.90;91.20
16285;DHT22;8250;52.426;9.450;2022-07-06T13:49:07;20.90;91.00
16285;DHT22;8250;52.426;9.450;2022-07-06T13:51:34;20.90;91.00
16285;DHT22;8250;52.426;9.450;2022-07-06T13:54:02;21.00;91.40
16285;DHT22;8250;52.426;9.450;2022-07-06T13:56:29;21.00;91.40
16285;DHT22;8250;52.426;9.450;2022-07-06T13:58:56;21.10;90.10
16285;DHT22;8250;52.426;9.450;2022-07-06T14:01:23;21.10;90.70
16285;DHT22;8250;52.426;9.450;2022-07-06T14:03:50;21.20;90.00
16285;DHT22;8250;52.426;9.450;2022-07-06T14:06:19;21.20;90.20
16285;DHT22;8250;52.426;9.450;2022-07-06T14:08:46;21.20;90.70
16285;DHT22;8250;52.426;9.450;2022-07-06T14:11:13;21.10;90.20
16285;DHT22;8250;52.426;9.450;2022-07-06T14:13:40;21.20;90.50
16285;DHT22;8250;52.426;9.450;2022-07-06T14:16:07;21.10;91.00
16285;DHT22;8250;52.426;9.450;2022-07-06T14:18:33;21.00;91.10
16285;DHT22;8250;52.426;9.450;2022-07-06T14:21:00;21.00;91.50
16285;DHT22;8250;52.426;9.450;2022-07-06T14:23:29;20.90;91.90
16285;DHT22;8250;52.426;9.450;2022-07-06T14:25:56;20.90;91.40
16285;DHT22;8250;52.426;9.450;2022-07-06T14:28:23;21.00;91.50
16285;DHT22;8250;52.426;9.450;2022-07-06T14:30:50;21.00;90.60
16285;DHT22;8250;52.426;9.450;2022-07-06T14:33:17;21.10;90.30
16285;DHT22;8250;52.426;9.450;2022-07-06T14:35:47;21.10;90.70
16285;DHT22;8250;52.426;9.450;2022-07-06T14:38:14;21.00;90.70
16285;DHT22;8250;52.426;9.450;2022-07-06T14:40:43;21.10;90.90
16285;DHT22;8250;52.426;9.450;2022-07-06T14:43:10;21.20;90.70
16285;DHT22;8250;52.426;9.450;2022-07-06T14:45:37;21.30;89.70
16285;DHT22;8250;52.426;9.450;2022-07-06T14:48:05;21.30;89.40
16285;DHT22;8250;52.426;9.450;2022-07-06T14:50:32;21.20;90.50
16285;DHT22;8250;52.426;9.450;2022-07-06T14:53:00;21.20;90.20
16285;DHT22;8250;52.426;9.450;2022-07-06T14:55:27;21.20;90.40
16285;DHT22;8250;52.426;9.450;2022-07-06T14:57:55;21.30;90.60
16285;DHT22;8250;52.426;9.450;2022-07-06T15:00:22;21.20;90.20
16285;DHT22;8250;52.426;9.450;2022-07-06T15:02:49;21.20;90.40
16285;DHT22;8250;52.426;9.450;2022-07-06T15:05:16;21.30;90.90
16285;DHT22;8250;52.426;9.450;2022-07-06T15:07:43;21.30;93.40
16285;DHT22;8250;52.426;9.450;2022-07-06T15:10:10;21.30;91.80
16285;DHT22;8250;52.426;9.450;2022-07-06T15:12:37;21.20;91.70
16285;DHT22;8250;52.426;9.450;2022-07-06T15:15:06;21.20;93.30
16285;DHT22;8250;52.426;9.450;2022-07-06T15:17:33;21.10;92.30
16285;DHT22;8250;52.426;9.450;2022-07-06T15:20:00;20.90;92.40
16285;DHT22;8250;52.426;9.450;2022-07-06T15:22:27;20.90;92.40
16285;DHT22;8250;52.426;9.450;2022-07-06T15:24:54;20.80;93.30
16285;DHT22;8250;52.426;9.450;2022-07-06T15:27:21;20.60;95.30
16285;DHT22;8250;52.426;9.450;2022-07-06T15:29:47;20.50;94.30
16285;DHT22;8250;52.426;9.450;2022-07-06T15:32:16;20.50;93.90
16285;DHT22;8250;52.426;9.450;2022-07-06T15:34:43;20.40;94.40
16285;DHT22;8250;52.426;9.450;2022-07-06T15:37:10;20.50;94.00
16285;DHT22;8250;52.426;9.450;2022-07-06T15:39:37;20.60;93.60
16285;DHT22;8250;52.426;9.450;2022-07-06T15:42:04;20.70;93.80
16285;DHT22;8250;52.426;9.450;2022-07-06T15:44:31;20.70;93.60
16285;DHT22;8250;52.426;9.450;2022-07-06T15:47:03;20.80;94.20
16285;DHT22;8250;52.426;9.450;2022-07-06T15:49:31;20.90;94.40
16285;DHT22;8250;52.426;9.450;2022-07-06T15:51:58;20.90;93.40